Time;durP1;ratioP1;P1;durP2;ratioP2;P2;SDS_P1;SDS_P2;PMS_P1;PMS_P2;Temp;Humidity;BMP_temperature;BMP_pressure;BME280_temperature;BME280_humidity;BME280_pressure;Samples;Min_cycle;Max_cycle;Signal;HPM_P1;HPM_P2
2022/05/11 00:01:35;;;;;;;13.48;6.53;;;18.90;63.40;;;;;;5093049;28;20032;-80
2022/05/11 00:04:01;;;;;;;12.05;6.43;;;18.90;64.00;;;;;;5091071;28;20086;-80
2022/05/11 00:06:28;;;;;;;11.02;6.85;;;18.80;64.00;;;;;;5091958;28;20032;-80
2022/05/11 00:08:56;;;;;;;10.02;5.72;;;18.70;64.20;;;;;;5093079;28;20032;-80
2022/05/11 00:11:23;;;;;;;12.75;6.55;;;18.70;64.70;;;;;;5093193;28;20032;-80
2022/05/11 00:13:49;;;;;;;10.15;6.20;;;18.70;64.80;;;;;;5093825;28;20507;-79
2022/05/11 00:16:15;;;;;;;9.05;6.00;;;18.70;64.70;;;;;;5092138;28;20040;-80
2022/05/11 00:18:41;;;;;;;11.93;6.72;;;18.70;64.70;;;;;;5093019;28;20051;-82
2022/05/11 00:21:08;;;;;;;9.63;5.53;;;18.70;64.90;;;;;;5092181;28;20081;-80
2022/05/11 00:23:34;;;;;;;11.65;6.30;;;18.60;65.20;;;;;;5092779;28;20495;-80
2022/05/11 00:25:59;;;;;;;11.38;5.63;;;18.60;65.20;;;;;;5092033;28;20059;-80
2022/05/11 00:28:25;;;;;;;12.15;6.35;;;18.50;65.80;;;;;;5092963;28;20111;-80
2022/05/11 00:30:51;;;;;;;11.98;5.50;;;18.40;66.00;;;;;;5092113;28;20020;-80
2022/05/11 00:33:18;;;;;;;10.20;5.85;;;18.40;66.40;;;;;;5091133;28;20023;-80
2022/05/11 00:35:46;;;;;;;9.52;5.63;;;18.40;66.40;;;;;;5091192;28;20035;-80
2022/05/11 00:38:12;;;;;;;6.97;6.00;;;18.30;66.70;;;;;;5091908;28;20028;-80
2022/05/11 00:40:44;;;;;;;13.18;6.07;;;18.30;67.10;;;;;;5092534;28;20028;-79
2022/05/11 00:43:10;;;;;;;8.82;5.68;;;18.30;67.30;;;;;;5092126;28;20150;-80
2022/05/11 00:45:41;;;;;;;10.15;5.88;;;18.20;67.50;;;;;;5092061;28;20346;-78
2022/05/11 00:50:59;;;;;;;10.23;6.00;;;18.20;68.00;;;;;;5080866;28;20408;-80
2022/05/11 00:53:25;;;;;;;10.88;6.00;;;18.10;68.60;;;;;;5092202;28;20027;-79
2022/05/11 00:55:55;;;;;;;8.35;6.25;;;18.10;68.80;;;;;;5092179;28;20032;-79
2022/05/11 00:58:30;;;;;;;10.20;5.85;;;18.00;68.80;;;;;;5091494;28;20032;-79
2022/05/11 01:00:57;;;;;;;12.38;5.70;;;18.00;69.30;;;;;;5091906;28;20048;-80
2022/05/11 01:03:39;;;;;;;12.25;5.95;;;18.00;69.50;;;;;;5090713;28;20096;-78
2022/05/11 01:06:07;;;;;;;11.73;5.88;;;18.00;69.70;;;;;;5071091;28;20035;-79
2022/05/11 01:08:33;;;;;;;9.73;6.07;;;18.00;69.60;;;;;;5071715;28;20111;-79
2022/05/11 01:11:04;;;;;;;9.65;6.00;;;17.90;69.50;;;;;;5071314;28;20383;-79
2022/05/11 01:13:32;;;;;;;10.38;6.20;;;18.00;70.00;;;;;;5070968;28;20481;-79
2022/05/11 01:16:00;;;;;;;8.90;5.75;;;17.90;69.90;;;;;;5071703;28;20060;-79
2022/05/11 01:18:25;;;;;;;8.80;5.50;;;17.90;69.80;;;;;;5071489;28;20524;-80
2022/05/11 01:20:52;;;;;;;9.52;5.55;;;17.90;70.40;;;;;;5071453;28;20032;-81
2022/05/11 01:23:23;;;;;;;6.72;5.10;;;17.80;70.20;;;;;;5070954;28;20051;-80
2022/05/11 01:25:48;;;;;;;8.98;5.28;;;17.70;70.80;;;;;;5071793;28;20052;-80
2022/05/11 01:28:17;;;;;;;8.68;5.75;;;17.60;71.30;;;;;;5071116;28;20430;-81
2022/05/11 01:30:48;;;;;;;10.73;5.60;;;17.50;71.60;;;;;;5071344;28;20028;-80
2022/05/11 01:33:17;;;;;;;11.93;5.57;;;17.40;72.10;;;;;;5071750;28;20021;-80
2022/05/11 01:36:09;;;;;;;9.13;5.15;;;17.30;73.40;;;;;;5072114;28;20020;-79
2022/05/11 01:39:00;;;;;;;10.57;5.38;;;17.30;73.50;;;;;;5071357;28;20027;-79
2022/05/11 01:41:49;;;;;;;8.38;4.82;;;17.20;73.40;;;;;;5071066;28;20032;-80
2022/05/11 01:44:17;;;;;;;9.13;5.10;;;17.10;74.50;;;;;;5070810;28;20031;-80
2022/05/11 01:46:48;;;;;;;7.18;4.80;;;17.00;74.40;;;;;;5071568;28;20025;-80
2022/05/11 01:49:14;;;;;;;11.68;5.63;;;16.90;75.90;;;;;;5071029;28;20029;-80
2022/05/11 01:51:40;;;;;;;6.15;4.68;;;16.80;75.90;;;;;;5069745;28;20468;-79
2022/05/11 01:54:06;;;;;;;11.27;4.63;;;16.70;76.30;;;;;;5069187;28;20102;-79
2022/05/11 01:56:32;;;;;;;8.70;4.72;;;16.70;77.30;;;;;;5071057;28;20024;-81
2022/05/11 01:58:58;;;;;;;7.03;4.90;;;16.60;77.40;;;;;;5071050;28;20030;-80
2022/05/11 02:01:27;;;;;;;6.05;4.78;;;16.60;77.70;;;;;;5070673;28;20396;-79
2022/05/11 02:03:53;;;;;;;9.30;5.20;;;16.60;77.90;;;;;;5071134;28;20021;-79
2022/05/11 02:09:04;;;;;;;6.63;4.50;;;16.60;78.20;;;;;;5071224;28;20119;-80
2022/05/11 02:11:30;;;;;;;8.27;4.47;;;16.60;78.10;;;;;;5071192;28;20217;-80
2022/05/11 02:13:57;;;;;;;6.57;4.85;;;16.70;78.30;;;;;;5070892;28;20032;-79
2022/05/11 02:16:24;;;;;;;5.28;4.78;;;16.70;77.80;;;;;;5069109;28;20029;-80
2022/05/11 02:18:49;;;;;;;6.53;5.30;;;16.70;78.50;;;;;;5070990;28;20021;-80
2022/05/11 02:21:15;;;;;;;5.75;4.60;;;16.60;78.20;;;;;;5070188;28;20085;-80
2022/05/11 02:23:41;;;;;;;6.65;5.07;;;16.60;78.20;;;;;;5071894;28;20107;-80
2022/05/11 02:26:10;;;;;;;8.13;4.95;;;16.50;79.30;;;;;;5072721;28;20384;-81
2022/05/11 02:28:36;;;;;;;5.85;4.75;;;16.60;79.40;;;;;;5074362;28;20034;-80
2022/05/11 02:31:01;;;;;;;10.23;5.22;;;16.60;79.40;;;;;;5073345;28;20024;-80
2022/05/11 02:33:27;;;;;;;10.00;5.13;;;16.60;79.00;;;;;;5077614;28;20385;-80
2022/05/11 02:35:54;;;;;;;6.72;4.95;;;16.50;78.90;;;;;;5094851;28;20020;-80
2022/05/11 02:38:24;;;;;;;7.95;5.22;;;16.50;79.50;;;;;;5094122;28;20495;-79
2022/05/11 02:40:51;;;;;;;5.25;4.70;;;16.50;79.10;;;;;;5110568;28;20140;-80
2022/05/11 02:43:17;;;;;;;6.00;5.05;;;16.40;79.70;;;;;;5092655;28;20116;-80
2022/05/11 02:45:44;;;;;;;5.88;5.07;;;16.40;79.90;;;;;;5094588;28;20028;-79
2022/05/11 02:48:12;;;;;;;9.30;5.38;;;16.40;80.10;;;;;;5093999;28;20035;-80
2022/05/11 02:50:44;;;;;;;6.18;5.05;;;16.30;80.90;;;;;;5094564;28;20032;-80
2022/05/11 02:53:11;;;;;;;6.93;5.32;;;16.40;81.40;;;;;;5093896;28;20093;-80
2022/05/11 02:55:42;;;;;;;9.35;5.20;;;16.40;80.70;;;;;;5094330;28;20016;-80
2022/05/11 02:58:08;;;;;;;;;;;16.40;81.60;;;;;;5094879;28;20030;-80
2022/05/11 03:00:36;;;;;;;7.13;5.00;;;16.40;81.10;;;;;;5094181;28;19904;-80
2022/05/11 03:03:03;;;;;;;8.25;4.68;;;16.40;80.60;;;;;;5094018;28;20058;-81
2022/05/11 03:05:29;;;;;;;6.63;4.90;;;16.40;80.80;;;;;;5093779;28;20027;-80
2022/05/11 03:07:55;;;;;;;6.55;4.65;;;16.30;80.30;;;;;;5093776;28;20012;-80
2022/05/11 03:10:21;;;;;;;6.38;4.68;;;16.40;81.00;;;;;;5093073;28;20050;-80
2022/05/11 03:12:47;;;;;;;5.65;4.68;;;16.30;80.20;;;;;;5093297;28;20168;-81
2022/05/11 03:15:12;;;;;;;6.70;4.32;;;16.30;80.90;;;;;;5093379;28;20086;-81
2022/05/11 03:17:38;;;;;;;8.38;4.90;;;16.20;81.00;;;;;;5094104;28;20024;-80
2022/05/11 03:20:06;;;;;;;5.13;4.63;;;16.30;80.70;;;;;;5092716;28;20024;-80
2022/05/11 03:22:32;;;;;;;7.28;4.70;;;16.20;80.60;;;;;;5093134;28;20473;-80
2022/05/11 03:24:58;;;;;;;8.95;4.97;;;16.20;81.00;;;;;;5093788;28;20036;-80
2022/05/11 03:27:24;;;;;;;6.57;5.43;;;16.10;81.50;;;;;;5093216;28;20027;-80
2022/05/11 03:29:51;;;;;;;7.63;4.60;;;16.10;82.20;;;;;;5093955;28;20582;-80
2022/05/11 03:35:01;;;;;;;6.85;4.82;;;16.10;82.70;;;;;;5092677;28;20043;-80
2022/05/11 03:37:27;;;;;;;6.30;4.80;;;16.10;81.80;;;;;;5092751;28;20031;-80
2022/05/11 03:39:52;;;;;;;7.07;4.75;;;16.10;81.80;;;;;;5093692;28;20047;-80
2022/05/11 03:42:22;;;;;;;6.70;4.55;;;16.10;81.60;;;;;;5092850;28;20531;-81
2022/05/11 03:44:48;;;;;;;8.95;4.97;;;16.00;82.00;;;;;;5093127;28;20028;-80
2022/05/11 03:47:14;;;;;;;8.90;4.72;;;16.00;82.60;;;;;;5092856;28;20028;-80
2022/05/11 03:49:39;;;;;;;7.25;4.75;;;16.00;82.10;;;;;;5093073;28;20024;-80
2022/05/11 03:52:06;;;;;;;10.90;4.63;;;16.00;81.40;;;;;;5093249;28;20040;-80
2022/05/11 03:54:32;;;;;;;7.55;4.68;;;15.90;82.30;;;;;;5092721;28;20031;-80
2022/05/11 03:56:57;;;;;;;7.55;4.78;;;16.00;82.10;;;;;;5092910;28;20036;-80
2022/05/11 03:59:23;;;;;;;9.02;4.88;;;16.00;81.90;;;;;;5092831;28;20099;-81
2022/05/11 04:01:49;;;;;;;8.27;5.40;;;16.00;81.50;;;;;;5091977;28;20066;-79
2022/05/11 04:04:14;;;;;;;8.23;4.85;;;16.10;81.10;;;;;;5092368;28;20024;-81
2022/05/11 04:06:40;;;;;;;7.68;5.10;;;16.10;80.90;;;;;;5108544;28;20170;-80
2022/05/11 04:09:06;;;;;;;10.50;5.10;;;16.10;80.70;;;;;;5092798;28;20024;-80
2022/05/11 04:11:33;;;;;;;7.00;4.80;;;16.10;81.20;;;;;;5092029;28;20047;-81
2022/05/11 04:13:58;;;;;;;8.02;5.40;;;16.20;80.80;;;;;;5092550;28;20020;-80
2022/05/11 04:16:24;;;;;;;8.23;5.32;;;16.20;81.20;;;;;;5091991;28;20035;-80
2022/05/11 04:19:09;;;;;;;8.25;5.88;;;16.20;80.80;;;;;;5108512;28;20028;-80
2022/05/11 04:21:34;;;;;;;8.95;5.25;;;16.20;80.50;;;;;;5107694;28;20036;-81
2022/05/11 04:24:00;;;;;;;10.38;5.65;;;16.30;80.80;;;;;;5092536;28;20039;-81
2022/05/11 04:26:26;;;;;;;9.27;4.85;;;16.40;80.30;;;;;;5091658;28;20035;-81
2022/05/11 04:28:52;;;;;;;8.20;4.88;;;16.50;79.60;;;;;;5092720;28;20020;-81
2022/05/11 04:31:17;;;;;;;6.80;4.65;;;16.60;79.40;;;;;;5091527;28;20028;-81
2022/05/11 04:33:43;;;;;;;7.75;5.50;;;16.80;78.40;;;;;;5092608;28;20028;-79
2022/05/11 04:36:09;;;;;;;11.43;5.70;;;16.90;77.70;;;;;;5092453;28;20099;-80
2022/05/11 04:38:35;;;;;;;7.68;5.65;;;17.10;76.90;;;;;;5090392;28;20453;-81
2022/05/11 04:41:01;;;;;;;9.43;5.40;;;17.20;76.10;;;;;;5092248;28;20426;-81
2022/05/11 04:43:27;;;;;;;10.95;6.28;;;17.40;74.80;;;;;;5091724;28;20024;-81
2022/05/11 04:45:54;;;;;;;8.98;5.57;;;17.40;74.40;;;;;;5092190;28;20032;-81
2022/05/11 04:48:20;;;;;;;9.25;5.65;;;17.60;73.80;;;;;;5089589;28;20110;-81
2022/05/11 04:50:46;;;;;;;15.02;5.50;;;17.70;73.10;;;;;;5092356;28;20103;-81
2022/05/11 04:53:14;;;;;;;10.65;5.68;;;17.90;72.90;;;;;;5092467;28;20036;-81
2022/05/11 04:55:40;;;;;;;9.00;5.00;;;18.10;72.30;;;;;;5089979;28;20027;-81
2022/05/11 04:58:06;;;;;;;8.15;5.15;;;18.30;71.20;;;;;;5106413;27;20075;-83
2022/05/11 05:00:35;;;;;;;9.80;4.90;;;18.60;70.00;;;;;;5091884;28;20063;-83
2022/05/11 05:03:04;;;;;;;11.35;5.13;;;18.80;68.50;;;;;;5092192;28;20425;-82
2022/05/11 05:05:30;;;;;;;10.35;5.15;;;19.00;67.50;;;;;;5108851;27;20031;-83
2022/05/11 05:07:56;;;;;;;8.35;5.25;;;19.20;66.30;;;;;;5099496;28;20417;-81
2022/05/11 05:10:21;;;;;;;8.88;5.25;;;19.40;65.50;;;;;;5096102;28;20024;-81
2022/05/11 05:12:48;;;;;;;7.50;4.80;;;19.60;64.60;;;;;;5092336;28;20476;-84
2022/05/11 05:15:16;;;;;;;7.45;5.18;;;19.80;63.90;;;;;;5089975;28;20067;-82
2022/05/11 05:17:42;;;;;;;15.02;5.10;;;20.10;62.80;;;;;;5090845;28;20043;-83
2022/05/11 05:20:10;;;;;;;8.45;4.70;;;20.20;62.00;;;;;;5091901;28;20119;-82
2022/05/11 05:22:36;;;;;;;8.63;4.43;;;20.60;60.80;;;;;;5091875;28;20043;-82
2022/05/11 05:25:02;;;;;;;9.57;4.75;;;21.00;58.80;;;;;;5110279;27;20024;-79
2022/05/11 05:27:29;;;;;;;5.72;4.05;;;22.00;58.00;;;;;;5095075;28;20039;-81
2022/05/11 05:32:43;;;;;;;6.03;3.83;;;24.30;49.90;;;;;;5091143;28;20035;-81
2022/05/11 05:35:11;;;;;;;6.93;3.60;;;25.30;46.50;;;;;;5093335;28;20046;-80
2022/05/11 05:37:38;;;;;;;6.47;3.60;;;26.10;43.40;;;;;;5091498;28;20032;-81
2022/05/11 05:40:05;;;;;;;10.98;3.03;;;26.90;42.20;;;;;;5108089;28;20031;-81
2022/05/11 05:42:31;;;;;;;5.78;3.20;;;27.70;40.30;;;;;;5091045;28;20214;-81
2022/05/11 05:44:57;;;;;;;5.72;3.17;;;28.20;39.50;;;;;;5091539;28;20028;-81
2022/05/11 05:47:22;;;;;;;8.45;2.88;;;28.70;38.60;;;;;;5091176;28;20024;-82
2022/05/11 05:49:48;;;;;;;6.10;3.17;;;29.10;38.10;;;;;;5091502;28;20077;-82
2022/05/11 05:52:21;;;;;;;5.25;3.42;;;29.70;37.50;;;;;;5091251;28;20427;-82
2022/05/11 05:54:47;;;;;;;8.10;3.17;;;30.30;36.40;;;;;;5091123;28;20067;-82
2022/05/11 05:57:13;;;;;;;7.10;3.42;;;31.10;35.70;;;;;;5091772;28;20024;-81
2022/05/11 05:59:39;;;;;;;6.15;3.67;;;31.90;34.40;;;;;;5094004;28;20095;-81
2022/05/11 06:02:14;;;;;;;6.82;3.45;;;32.70;33.60;;;;;;5095322;28;20185;-81
2022/05/11 06:04:47;;;;;;;7.68;3.50;;;33.30;32.70;;;;;;5094925;28;20103;-82
2022/05/11 06:07:13;;;;;;;6.88;3.50;;;33.80;31.30;;;;;;5095484;28;20045;-81
2022/05/11 06:09:40;;;;;;;6.07;3.40;;;34.40;31.00;;;;;;5094573;28;20039;-82
2022/05/11 06:12:07;;;;;;;6.38;3.60;;;34.60;30.40;;;;;;5095269;28;20063;-82
2022/05/11 06:14:34;;;;;;;9.35;4.30;;;34.80;30.50;;;;;;5094693;28;20048;-81
2022/05/11 06:17:03;;;;;;;7.05;4.18;;;35.10;30.20;;;;;;5095292;28;20389;-81
2022/05/11 06:19:29;;;;;;;7.10;4.00;;;34.80;29.70;;;;;;5094504;28;20032;-81
2022/05/11 06:21:54;;;;;;;10.13;4.63;;;33.90;29.90;;;;;;5094522;28;20028;-82
2022/05/11 06:24:20;;;;;;;9.25;4.50;;;32.90;31.10;;;;;;5093874;28;20470;-81
2022/05/11 06:26:46;;;;;;;11.00;4.35;;;32.20;32.40;;;;;;5094695;28;20028;-82
2022/05/11 06:29:12;;;;;;;13.15;5.57;;;31.70;33.80;;;;;;5094690;28;20418;-82
2022/05/11 06:31:38;;;;;;;9.23;5.15;;;31.30;34.90;;;;;;5092612;28;20372;-82
2022/05/11 06:34:04;;;;;;;11.13;5.10;;;30.90;35.90;;;;;;5094906;28;20036;-82
2022/05/11 06:36:29;;;;;;;12.45;4.50;;;30.80;36.70;;;;;;5093765;28;20062;-82
2022/05/11 06:38:56;;;;;;;5.85;4.72;;;30.60;37.50;;;;;;5094545;28;20028;-81
2022/05/11 06:41:25;;;;;;;7.13;4.53;;;30.60;37.90;;;;;;5094632;28;20032;-82
2022/05/11 06:43:51;;;;;;;8.93;4.55;;;30.60;39.00;;;;;;5094365;28;20068;-82
2022/05/11 06:46:18;;;;;;;8.80;5.03;;;30.60;38.70;;;;;;5094251;28;20118;-83
2022/05/11 06:48:45;;;;;;;6.78;4.10;;;30.70;38.90;;;;;;5092647;28;20298;-81
2022/05/11 06:51:12;;;;;;;9.27;4.07;;;31.00;38.60;;;;;;5094230;28;20024;-81
2022/05/11 06:59:21;;;;;;;8.40;3.47;;;32.80;34.70;;;;;;5093870;28;20396;-81
2022/05/11 07:01:55;;;;;;;4.45;3.25;;;33.30;33.60;;;;;;5093569;28;20046;-81
2022/05/11 07:04:22;;;;;;;9.52;3.15;;;33.40;32.70;;;;;;5109129;28;20028;-81
2022/05/11 07:06:49;;;;;;;7.80;3.30;;;33.30;32.60;;;;;;5094083;28;20050;-81
2022/05/11 07:09:15;;;;;;;9.30;3.38;;;33.10;31.80;;;;;;5109833;28;20124;-82
2022/05/11 07:14:26;;;;;;;13.45;3.15;;;32.60;33.30;;;;;;5093803;28;20051;-83
2022/05/11 07:16:52;;;;;;;9.25;3.20;;;32.60;32.40;;;;;;5094244;28;20020;-81
2022/05/11 07:19:21;;;;;;;4.20;2.40;;;32.50;32.20;;;;;;5094250;28;20035;-81
2022/05/11 07:21:47;;;;;;;5.97;2.75;;;32.70;32.30;;;;;;5093514;28;20039;-82
2022/05/11 07:24:12;;;;;;;7.38;2.60;;;33.00;32.10;;;;;;5093848;28;20439;-81
2022/05/11 07:26:38;;;;;;;7.80;2.45;;;33.30;31.70;;;;;;5093385;28;20024;-82
2022/05/11 07:29:04;;;;;;;5.32;3.10;;;33.60;31.60;;;;;;5109713;28;20081;-81
2022/05/11 07:31:30;;;;;;;5.13;2.72;;;33.80;31.70;;;;;;5093293;28;20028;-82
2022/05/11 07:33:56;;;;;;;6.43;3.13;;;33.90;31.20;;;;;;5094116;28;20016;-82
2022/05/11 07:36:22;;;;;;;7.20;3.15;;;33.90;31.40;;;;;;5094006;28;20040;-81
2022/05/11 07:38:47;;;;;;;6.90;3.20;;;34.00;32.20;;;;;;5093521;28;20116;-82
2022/05/11 07:41:13;;;;;;;8.05;2.58;;;34.20;31.10;;;;;;5109837;28;20052;-81
2022/05/11 07:43:39;;;;;;;6.47;2.63;;;34.30;30.00;;;;;;5103407;28;20024;-81
2022/05/11 07:46:04;;;;;;;7.70;3.30;;;34.10;30.50;;;;;;5125263;28;20054;-81
2022/05/11 07:48:30;;;;;;;3.50;2.85;;;34.30;31.40;;;;;;5092846;28;20030;-83
2022/05/11 07:50:55;;;;;;;7.22;2.90;;;34.60;30.50;;;;;;5093751;28;20059;-83
2022/05/11 07:53:21;;;;;;;8.13;2.70;;;34.80;30.00;;;;;;5093422;28;20032;-82
2022/05/11 07:55:47;;;;;;;7.05;2.75;;;34.70;29.60;;;;;;5092926;28;20021;-82
2022/05/11 08:00:59;;;;;;;5.57;2.47;;;34.90;30.60;;;;;;5093294;28;20491;-80
2022/05/11 08:03:24;;;;;;;7.20;2.60;;;35.20;30.40;;;;;;5093255;28;20024;-83
2022/05/11 08:05:50;;;;;;;4.63;2.63;;;35.20;29.60;;;;;;5092513;28;20047;-82
2022/05/11 08:08:16;;;;;;;6.45;2.30;;;35.60;30.30;;;;;;5093201;28;20024;-82
2022/05/11 08:10:45;;;;;;;5.25;2.50;;;35.80;30.20;;;;;;5092329;28;20022;-82
2022/05/11 08:13:12;;;;;;;7.10;2.50;;;35.60;28.60;;;;;;5093026;28;20040;-82
2022/05/11 08:15:43;;;;;;;6.82;2.40;;;35.50;29.20;;;;;;5092498;28;20044;-81
2022/05/11 08:18:10;;;;;;;4.30;2.58;;;35.30;30.00;;;;;;5093829;28;20044;-82
2022/05/11 08:20:41;;;;;;;5.03;2.25;;;35.20;30.00;;;;;;5093156;28;20055;-82
2022/05/11 08:23:07;;;;;;;7.22;3.00;;;35.20;29.40;;;;;;5092418;28;20032;-81
2022/05/11 08:25:35;;;;;;;6.78;2.80;;;35.10;30.00;;;;;;5092626;28;20032;-83
2022/05/11 08:28:02;;;;;;;6.20;2.20;;;34.80;30.50;;;;;;5093465;28;20337;-81
2022/05/11 08:33:22;;;;;;;6.28;2.28;;;34.70;30.00;;;;;;5092908;28;20093;-83
2022/05/11 08:35:50;;;;;;;3.50;1.80;;;34.80;28.90;;;;;;5092095;28;20534;-81
2022/05/11 08:38:18;;;;;;;4.80;2.08;;;34.70;29.60;;;;;;5092568;28;20047;-83
2022/05/11 08:41:02;;;;;;;6.38;2.38;;;34.90;29.80;;;;;;5092020;28;20020;-83
2022/05/11 08:43:31;;;;;;;4.25;2.17;;;34.70;29.80;;;;;;5092442;28;20046;-82
2022/05/11 08:46:03;;;;;;;6.57;2.08;;;34.70;29.80;;;;;;5092069;28;20075;-81
2022/05/11 08:48:56;;;;;;;5.82;2.35;;;34.60;29.30;;;;;;5092509;28;20028;-82
2022/05/11 08:51:27;;;;;;;3.70;2.00;;;34.00;28.60;;;;;;5092783;28;20174;-82
2022/05/11 08:54:12;;;;;;;4.03;1.95;;;33.50;30.50;;;;;;5091960;28;20024;-81
2022/05/11 08:56:38;;;;;;;2.70;2.05;;;33.30;31.00;;;;;;5091751;28;20070;-82
2022/05/11 08:59:06;;;;;;;5.47;2.30;;;33.10;31.10;;;;;;5092535;28;20031;-81
2022/05/11 09:01:48;;;;;;;5.18;2.30;;;32.80;30.70;;;;;;5092404;28;20028;-81
2022/05/11 09:04:19;;;;;;;4.22;2.60;;;32.30;32.30;;;;;;5092341;28;20069;-82
2022/05/11 09:06:45;;;;;;;4.03;2.35;;;32.20;31.50;;;;;;5091842;28;20023;-82
2022/05/11 09:09:12;;;;;;;3.63;2.22;;;32.00;31.90;;;;;;5108182;28;20381;-82
2022/05/11 09:11:42;;;;;;;3.33;2.20;;;31.90;32.70;;;;;;5089999;28;20350;-82
2022/05/11 09:14:08;;;;;;;7.88;2.08;;;31.90;32.90;;;;;;5107765;28;20020;-82
2022/05/11 09:16:43;;;;;;;5.82;2.35;;;31.70;33.30;;;;;;5092748;28;20081;-82
2022/05/11 09:19:18;;;;;;;5.13;2.38;;;31.60;32.90;;;;;;5092344;28;20016;-82
2022/05/11 09:21:55;;;;;;;4.38;2.10;;;31.50;32.30;;;;;;5091180;28;20047;-82
2022/05/11 09:24:31;;;;;;;5.63;2.50;;;31.40;33.30;;;;;;5093457;28;20078;-81
2022/05/11 09:27:04;;;;;;;4.35;2.38;;;31.30;32.70;;;;;;5098581;28;20467;-82
2022/05/11 09:29:37;;;;;;;6.03;2.35;;;31.20;33.10;;;;;;5096618;28;20050;-82
2022/05/11 09:32:29;;;;;;;6.88;2.25;;;31.10;33.00;;;;;;5092077;28;20118;-82
2022/05/11 09:34:55;;;;;;;7.15;2.10;;;31.00;32.30;;;;;;5091199;28;20021;-81
2022/05/11 09:37:20;;;;;;;3.90;2.20;;;30.90;33.70;;;;;;5091972;28;20028;-81
2022/05/11 09:40:08;;;;;;;4.75;2.45;;;30.80;34.00;;;;;;5090972;28;20024;-82
2022/05/11 09:42:34;;;;;;;6.88;2.90;;;30.90;32.80;;;;;;5090646;28;20032;-81
2022/05/11 09:45:00;;;;;;;9.82;2.70;;;30.70;32.20;;;;;;5089878;28;20031;-83
2022/05/11 09:47:29;;;;;;;3.60;2.35;;;30.50;32.60;;;;;;5091894;28;20428;-82
2022/05/11 09:50:21;;;;;;;5.25;2.28;;;30.50;32.20;;;;;;5091184;28;20020;-82
2022/05/11 09:52:48;;;;;;;6.68;2.47;;;30.40;32.80;;;;;;5090978;28;20528;-81
2022/05/11 09:55:24;;;;;;;6.25;2.50;;;30.30;32.70;;;;;;5091659;28;20464;-81
2022/05/11 09:57:57;;;;;;;5.65;2.40;;;30.40;33.20;;;;;;5091162;28;20025;-83
2022/05/11 10:00:43;;;;;;;3.60;2.20;;;30.50;33.50;;;;;;5091755;28;20021;-81
2022/05/11 10:03:13;;;;;;;5.05;2.50;;;30.50;33.20;;;;;;5092344;28;20031;-82
2022/05/11 10:05:48;;;;;;;7.22;3.30;;;30.60;33.10;;;;;;5091048;28;20168;-83
2022/05/11 10:08:22;;;;;;;3.95;2.47;;;30.60;32.40;;;;;;5091637;28;20036;-81
2022/05/11 10:10:54;;;;;;;2.63;2.00;;;30.60;33.40;;;;;;5106560;28;20020;-82
2022/05/11 10:13:34;;;;;;;4.88;2.80;;;30.60;32.00;;;;;;5091747;28;20530;-82
2022/05/11 10:21:53;;;;;;;5.05;2.60;;;30.70;32.50;;;;;;5091209;28;20505;-82
2022/05/11 10:24:40;;;;;;;3.83;2.40;;;30.70;33.20;;;;;;5091518;28;20024;-82
2022/05/11 10:27:41;;;;;;;3.53;2.03;;;30.60;33.00;;;;;;5091769;28;20024;-82
2022/05/11 10:30:22;;;;;;;3.25;2.50;;;30.70;32.20;;;;;;5091428;28;20031;-82
2022/05/11 10:32:57;;;;;;;3.55;2.20;;;30.70;32.00;;;;;;5090986;28;20024;-83
2022/05/11 10:35:55;;;;;;;4.63;2.28;;;30.60;32.20;;;;;;5107277;28;20028;-82
2022/05/11 10:38:59;;;;;;;3.85;2.60;;;30.70;31.80;;;;;;5090746;28;20477;-82
2022/05/11 10:41:34;;;;;;;2.75;2.40;;;30.70;31.60;;;;;;5089840;28;20036;-82
2022/05/11 10:44:16;;;;;;;3.38;2.45;;;30.50;31.40;;;;;;5090094;28;20024;-82
2022/05/11 10:46:47;;;;;;;4.05;2.42;;;30.60;31.70;;;;;;5109494;28;20028;-83
2022/05/11 10:49:41;;;;;;;8.77;2.92;;;30.60;32.00;;;;;;5094147;28;20024;-82
2022/05/11 10:52:22;;;;;;;6.95;2.50;;;30.60;32.00;;;;;;5094016;28;20032;-82
2022/05/11 10:55:27;;;;;;;3.92;2.63;;;30.50;32.50;;;;;;5093698;28;20024;-81
2022/05/11 10:58:07;;;;;;;2.78;2.28;;;30.50;31.80;;;;;;5069945;28;20071;-82
2022/05/11 11:00:41;;;;;;;4.40;2.40;;;30.50;32.20;;;;;;5093821;28;20073;-82
2022/05/11 11:03:28;;;;;;;3.17;2.20;;;30.30;31.80;;;;;;5093561;28;20043;-82
2022/05/11 11:09:23;;;;;;;6.28;2.67;;;30.30;32.20;;;;;;5094204;28;20062;-81
2022/05/11 11:11:48;;;;;;;4.53;2.40;;;30.20;31.70;;;;;;5093236;28;20027;-82
2022/05/11 11:14:23;;;;;;;4.20;2.33;;;30.20;31.90;;;;;;5093398;28;20021;-82
2022/05/11 11:16:49;;;;;;;8.27;2.38;;;30.20;32.00;;;;;;5109035;28;20031;-82
2022/05/11 11:19:15;;;;;;;5.05;2.50;;;30.10;32.20;;;;;;5093465;28;20059;-82
2022/05/11 11:21:42;;;;;;;7.60;2.72;;;30.00;32.10;;;;;;5094662;28;20116;-82
2022/05/11 11:24:24;;;;;;;5.32;2.50;;;30.10;33.50;;;;;;5099180;28;20024;-82
2022/05/11 11:26:56;;;;;;;5.82;2.50;;;30.10;32.50;;;;;;5107657;28;20024;-81
2022/05/11 11:29:37;;;;;;;2.60;2.17;;;30.10;32.40;;;;;;5103380;28;20052;-81
2022/05/11 11:32:20;;;;;;;4.75;2.70;;;30.00;32.60;;;;;;5093010;28;20067;-81
2022/05/11 11:35:23;;;;;;;4.28;2.30;;;30.10;32.40;;;;;;5093283;28;20028;-82
2022/05/11 11:38:00;;;;;;;4.70;2.28;;;30.10;32.20;;;;;;5093147;28;20043;-82
2022/05/11 11:40:29;;;;;;;4.03;2.47;;;30.10;32.50;;;;;;5093517;28;20524;-80
2022/05/11 11:42:55;;;;;;;2.95;2.20;;;29.90;31.80;;;;;;5108107;28;20032;-81
2022/05/11 11:45:27;;;;;;;7.43;2.65;;;29.80;32.80;;;;;;5093437;28;20028;-81
2022/05/11 11:48:21;;;;;;;3.05;2.45;;;29.90;32.20;;;;;;5108370;28;20484;-81
2022/05/11 11:50:49;;;;;;;4.85;2.30;;;29.80;32.30;;;;;;5092632;28;20024;-83
2022/05/11 11:53:30;;;;;;;3.78;2.60;;;29.80;31.90;;;;;;5093353;28;20119;-81
2022/05/11 11:56:15;;;;;;;;;;;29.80;31.50;;;;;;5092351;28;20031;-82
2022/05/11 11:58:41;;;;;;;2.97;2.60;;;29.70;31.90;;;;;;5092798;28;20337;-82
2022/05/11 12:01:10;;;;;;;7.00;2.92;;;29.60;32.10;;;;;;5092102;28;20085;-81
2022/05/11 12:03:55;;;;;;;4.35;2.42;;;29.60;32.00;;;;;;5092684;28;20334;-82
2022/05/11 12:15:03;;;;;;;4.35;2.63;;;29.10;32.20;;;;;;5092542;28;20055;-82
2022/05/11 12:17:37;;;;;;;3.50;2.40;;;29.00;32.80;;;;;;5093014;28;20028;-81
2022/05/11 12:20:17;;;;;;;3.08;2.70;;;28.90;33.20;;;;;;5091997;28;20081;-81
2022/05/11 12:22:52;;;;;;;4.50;2.50;;;28.80;32.70;;;;;;5092509;28;20048;-81
2022/05/11 12:25:23;;;;;;;3.70;2.67;;;28.70;33.30;;;;;;5108497;28;20330;-81
2022/05/11 12:27:50;;;;;;;4.25;2.45;;;28.70;32.90;;;;;;5092520;28;20126;-84
2022/05/11 12:30:24;;;;;;;4.15;2.47;;;28.60;33.60;;;;;;5092415;28;20036;-80
2022/05/11 12:32:50;;;;;;;5.05;2.58;;;28.60;33.80;;;;;;5092167;28;20376;-82
2022/05/11 12:35:29;;;;;;;5.75;2.67;;;28.50;33.40;;;;;;5092455;28;20095;-81
2022/05/11 12:38:05;;;;;;;4.90;2.70;;;28.50;33.50;;;;;;5091889;28;20056;-80
2022/05/11 12:40:40;;;;;;;6.03;2.65;;;28.40;33.80;;;;;;5107917;28;20024;-81
2022/05/11 12:43:28;;;;;;;6.72;2.83;;;28.30;34.00;;;;;;5091737;28;20110;-82
2022/05/11 12:45:59;;;;;;;3.92;2.85;;;28.30;34.00;;;;;;5092086;28;20376;-82
2022/05/11 12:48:31;;;;;;;3.92;3.40;;;28.30;34.40;;;;;;5092153;28;20062;-81
2022/05/11 12:51:14;;;;;;;4.10;2.90;;;28.30;34.00;;;;;;5091819;28;20445;-81
2022/05/11 12:53:52;;;;;;;5.47;2.80;;;28.30;34.40;;;;;;5092234;28;20099;-81
2022/05/11 12:56:27;;;;;;;3.50;2.60;;;28.30;33.90;;;;;;5092160;28;20469;-81
2022/05/11 12:58:56;;;;;;;5.55;3.03;;;28.30;33.60;;;;;;5107373;28;20130;-81
2022/05/11 13:01:24;;;;;;;7.67;3.03;;;28.30;34.40;;;;;;5092277;28;20031;-79
2022/05/11 13:03:52;;;;;;;6.35;2.83;;;28.20;34.20;;;;;;5092543;28;20024;-81
2022/05/11 13:06:21;;;;;;;5.38;2.92;;;28.20;33.90;;;;;;5092188;28;20076;-81
2022/05/11 13:08:50;;;;;;;5.18;3.10;;;28.10;34.10;;;;;;5090718;28;20031;-80
2022/05/11 13:11:20;;;;;;;5.10;2.65;;;28.10;34.60;;;;;;5088467;28;20017;-81
2022/05/11 13:13:52;;;;;;;7.15;2.70;;;28.20;34.50;;;;;;5091875;28;20031;-81
2022/05/11 13:16:23;;;;;;;6.35;2.58;;;28.20;34.00;;;;;;5091262;28;20507;-82
2022/05/11 13:18:49;;;;;;;6.72;2.67;;;28.10;34.60;;;;;;5091586;28;20028;-80
2022/05/11 13:21:35;;;;;;;6.95;2.70;;;28.10;34.40;;;;;;5091201;28;20118;-81
2022/05/11 13:24:03;;;;;;;4.80;2.65;;;28.10;34.50;;;;;;5091959;28;20068;-81
2022/05/11 13:26:37;;;;;;;5.50;3.03;;;28.10;34.40;;;;;;5093167;28;20032;-81
2022/05/11 13:29:25;;;;;;;9.27;2.60;;;28.10;34.50;;;;;;5091525;28;20028;-82
2022/05/11 13:32:09;;;;;;;6.85;2.75;;;28.00;34.50;;;;;;5091916;28;20055;-81
2022/05/11 13:34:35;;;;;;;8.27;2.80;;;28.00;34.60;;;;;;5092171;28;20035;-81
2022/05/11 13:37:02;;;;;;;6.03;2.42;;;28.00;35.00;;;;;;5107234;28;20035;-81
2022/05/11 13:39:39;;;;;;;4.35;2.97;;;27.90;34.50;;;;;;5091917;28;20024;-81
2022/05/11 13:42:26;;;;;;;7.97;3.08;;;27.90;34.40;;;;;;5090788;28;20044;-82
2022/05/11 13:45:04;;;;;;;4.10;2.72;;;27.80;34.90;;;;;;5091495;28;20028;-81